createdAt,value
2023-08-29T00:01:48.267Z,99446.46
2023-08-29T00:04:52.558Z,99436.20
2023-08-29T00:07:57.299Z,99427.70
2023-08-29T00:11:04.096Z,99420.89
2023-08-29T00:14:08.324Z,99403.20
2023-08-29T00:17:12.418Z,99397.59
2023-08-29T00:20:16.618Z,99388.05
2023-08-29T00:23:21.076Z,99384.36
2023-08-29T00:26:26.295Z,99378.98
2023-08-29T00:29:30.610Z,99374.50
2023-08-29T00:32:34.787Z,99374.68
2023-08-29T00:35:40.968Z,99359.70
2023-08-29T00:38:45.204Z,99353.13
2023-08-29T00:41:50.615Z,99350.89
2023-08-29T00:44:54.778Z,99346.16
2023-08-29T00:48:00.225Z,99340.64
2023-08-29T00:51:04.395Z,99331.77
2023-08-29T00:54:12.394Z,99330.55
2023-08-29T00:57:16.888Z,99332.80
2023-08-29T01:00:22.920Z,99336.32
2023-08-29T01:03:27.491Z,99335.91
2023-08-29T01:06:33.775Z,99340.01
2023-08-29T01:09:39.085Z,99339.44
2023-08-29T01:13:05.638Z,99332.80
2023-08-29T01:16:12.236Z,99326.79
2023-08-29T01:19:16.880Z,99324.46
2023-08-29T01:22:28.348Z,99318.52
2023-08-29T01:25:52.193Z,99312.59
2023-08-29T01:28:59.175Z,99307.79
2023-08-29T01:32:04.521Z,99301.94
2023-08-29T01:35:11.673Z,99298.10
2023-08-29T01:38:19.461Z,99292.17
2023-08-29T01:41:23.696Z,99288.17
2023-08-29T01:44:27.896Z,99286.02
2023-08-29T01:47:32.374Z,99274.09
2023-08-29T01:50:37.614Z,99266.56
2023-08-29T01:53:43.506Z,99261.11
2023-08-29T01:56:49.223Z,99246.13
2023-08-29T01:59:54.277Z,99243.91
2023-08-29T02:02:58.898Z,99236.88
2023-08-29T02:06:03.589Z,99223.90
2023-08-29T02:09:08.176Z,99209.01
2023-08-29T02:12:14.150Z,99200.53
2023-08-29T02:15:19.879Z,99191.15
2023-08-29T02:18:26.481Z,99181.31
2023-08-29T02:21:30.879Z,99175.63
2023-08-29T02:24:35.174Z,99175.22
2023-08-29T02:27:39.484Z,99176.52
2023-08-29T02:30:43.850Z,99171.55
2023-08-29T02:33:48.363Z,99161.14
2023-08-29T02:36:54.038Z,99158.03
2023-08-29T02:39:59.337Z,99148.09
2023-08-29T02:43:05.045Z,99134.73
2023-08-29T02:46:09.264Z,99124.02
2023-08-29T02:49:13.987Z,99106.87
2023-08-29T02:52:18.113Z,99100.30
2023-08-29T02:55:22.335Z,99090.30
2023-08-29T02:58:26.552Z,99081.77
2023-08-29T03:01:30.646Z,99083.11
2023-08-29T03:04:34.777Z,99090.55
2023-08-29T03:07:41.071Z,99085.60
2023-08-29T03:10:45.175Z,99082.95
2023-08-29T03:13:49.464Z,99092.80
2023-08-29T03:16:54.730Z,99081.45
2023-08-29T03:19:59.677Z,99079.36
2023-08-29T03:23:04.089Z,99078.23
2023-08-29T03:26:11.348Z,99078.48
2023-08-29T03:29:15.891Z,99116.10
2023-08-29T03:32:20.081Z,99224.01
2023-08-29T03:35:24.407Z,99271.41
2023-08-29T03:38:28.994Z,99250.20
2023-08-29T03:41:33.251Z,99222.10
2023-08-29T03:44:37.358Z,99203.84
2023-08-29T03:47:42.485Z,99212.08
2023-08-29T03:50:46.623Z,99241.05
2023-08-29T03:53:50.886Z,99245.38
2023-08-29T03:56:55.645Z,99244.81
2023-08-29T04:00:00.442Z,99251.94
2023-08-29T04:03:07.516Z,99248.64
2023-08-29T04:06:12.563Z,99258.79
2023-08-29T04:09:17.326Z,99240.23
2023-08-29T04:12:21.439Z,99230.45
2023-08-29T04:15:25.979Z,99228.19
2023-08-29T04:18:33.871Z,99218.17
2023-08-29T04:21:38.212Z,99223.30
2023-08-29T04:24:42.601Z,99224.97
2023-08-29T04:27:47.963Z,99231.94
2023-08-29T04:30:52.622Z,99225.45
2023-08-29T04:33:57.603Z,99218.49
2023-08-29T04:37:01.789Z,99239.01
2023-08-29T04:40:11.667Z,99230.77
2023-08-29T04:43:15.797Z,99231.80
2023-08-29T04:46:19.901Z,99244.45
2023-08-29T04:49:24.192Z,99247.17
2023-08-29T04:52:29.317Z,99235.23
2023-08-29T04:55:33.770Z,99234.02
2023-08-29T04:58:38.122Z,99224.41
2023-08-29T05:01:42.780Z,99224.08
2023-08-29T05:04:48.873Z,99227.25
2023-08-29T05:07:53.825Z,99225.41
2023-08-29T05:11:03.098Z,99247.27
2023-08-29T05:14:07.334Z,99246.46
2023-08-29T05:17:11.696Z,99242.85
2023-08-29T05:20:16.624Z,99245.35
2023-08-29T05:23:20.956Z,99239.81
2023-08-29T05:26:25.345Z,99242.38
2023-08-29T05:29:29.471Z,99232.59
2023-08-29T05:32:33.617Z,99218.40
2023-08-29T05:35:37.818Z,99207.52
2023-08-29T05:38:42.046Z,99200.92
2023-08-29T05:41:46.588Z,99198.82
2023-08-29T05:44:50.857Z,99188.70
2023-08-29T05:47:55.177Z,99187.88
2023-08-29T05:50:59.551Z,99191.23
2023-08-29T05:54:04.193Z,99187.85
2023-08-29T05:57:08.697Z,99180.79
2023-08-29T06:00:16.052Z,99174.48
2023-08-29T06:03:22.887Z,99172.92
2023-08-29T06:06:27.527Z,99175.64
2023-08-29T06:09:34.560Z,99171.20
2023-08-29T06:12:39.139Z,99167.07
2023-08-29T06:15:44.243Z,99163.48
2023-08-29T06:18:48.590Z,99166.33
2023-08-29T06:21:52.823Z,99161.45
2023-08-29T06:24:56.911Z,99164.23
2023-08-29T06:28:01.305Z,99159.54
2023-08-29T06:31:08.602Z,99147.96
2023-08-29T06:34:13.394Z,99154.12
2023-08-29T06:37:17.608Z,99147.73
2023-08-29T06:40:21.788Z,99154.52
2023-08-29T06:43:26.261Z,99165.48
2023-08-29T06:46:30.416Z,99164.73
2023-08-29T06:49:35.209Z,99165.95
2023-08-29T06:52:39.439Z,99168.53
2023-08-29T06:55:43.485Z,99164.86
2023-08-29T06:58:47.749Z,99162.11
2023-08-29T07:01:53.797Z,99146.69
2023-08-29T07:04:58.257Z,99136.77
2023-08-29T07:08:02.795Z,99139.77
2023-08-29T07:11:08.126Z,99149.15
2023-08-29T07:14:12.299Z,99147.33
2023-08-29T07:17:16.633Z,99137.07
2023-08-29T07:20:21.180Z,99135.02
2023-08-29T07:23:26.790Z,99136.28
2023-08-29T07:26:30.977Z,99141.36
2023-08-29T07:29:35.715Z,99149.42
2023-08-29T07:32:40.368Z,99153.16
2023-08-29T07:35:47.053Z,99163.02
2023-08-29T07:38:51.324Z,99169.70
2023-08-29T07:41:55.584Z,99172.08
2023-08-29T07:44:59.687Z,99168.02
2023-08-29T07:48:05.663Z,99174.81
2023-08-29T07:51:10.017Z,99170.27
2023-08-29T07:54:14.153Z,99166.45
2023-08-29T07:57:18.315Z,99174.56
2023-08-29T08:00:22.550Z,99184.23
2023-08-29T08:03:26.627Z,99188.52
2023-08-29T08:06:31.380Z,99185.76
2023-08-29T08:09:35.561Z,99178.96
2023-08-29T08:12:40.655Z,99180.20
2023-08-29T08:15:44.831Z,99182.95
2023-08-29T08:18:49.152Z,99176.53
2023-08-29T08:21:53.287Z,99169.09
2023-08-29T08:24:57.392Z,99168.53
2023-08-29T08:28:01.848Z,99173.94
2023-08-29T08:31:07.993Z,99178.66
2023-08-29T08:34:13.085Z,99188.70
2023-08-29T08:37:17.382Z,99204.05
2023-08-29T08:40:22.025Z,99207.68
2023-08-29T08:43:27.546Z,99210.81
2023-08-29T08:46:32.235Z,99219.66
2023-08-29T08:49:39.309Z,99219.52
2023-08-29T08:52:46.060Z,99223.58
2023-08-29T08:55:51.431Z,99231.77
2023-08-29T08:58:55.935Z,99231.45
2023-08-29T09:02:00.354Z,99228.77
2023-08-29T09:05:05.678Z,99231.11
2023-08-29T09:08:11.188Z,99225.10
2023-08-29T09:11:19.476Z,99221.42
2023-08-29T09:14:25.001Z,99226.55
2023-08-29T09:17:29.289Z,99220.48
2023-08-29T09:20:34.730Z,99215.14
2023-08-29T09:23:39.162Z,99208.52
2023-08-29T09:26:43.460Z,99212.00
2023-08-29T09:29:47.647Z,99211.45
2023-08-29T09:32:52.936Z,99207.54
2023-08-29T09:35:57.588Z,99200.16
2023-08-29T09:39:03.733Z,99197.30
2023-08-29T09:42:12.810Z,99201.83
2023-08-29T09:45:17.671Z,99198.65
2023-08-29T09:48:22.403Z,99201.70
2023-08-29T09:51:29.718Z,99201.63
2023-08-29T09:54:34.672Z,99197.08
2023-08-29T09:57:40.801Z,99207.30
2023-08-29T10:00:45.743Z,99206.82
2023-08-29T10:03:50.670Z,99219.29
2023-08-29T10:06:57.856Z,99216.43
2023-08-29T10:10:02.947Z,99211.58
2023-08-29T10:13:09.278Z,99209.73
2023-08-29T10:16:15.369Z,99208.44
2023-08-29T10:19:21.224Z,99210.49
2023-08-29T10:22:29.496Z,99201.83
2023-08-29T10:25:36.381Z,99197.60
2023-08-29T10:28:41.734Z,99196.12
2023-08-29T10:31:47.192Z,99198.23
2023-08-29T10:34:52.558Z,99203.00
2023-08-29T10:37:56.803Z,99199.84
2023-08-29T10:41:03.561Z,99197.83
2023-08-29T10:44:29.748Z,99203.64
2023-08-29T10:47:46.736Z,99219.84
2023-08-29T10:51:09.397Z,99226.87
2023-08-29T10:54:15.020Z,99215.59
2023-08-29T10:57:30.207Z,99210.73
2023-08-29T11:00:43.297Z,99209.91
2023-08-29T11:03:50.044Z,99212.27
2023-08-29T11:06:56.372Z,99216.05
2023-08-29T11:10:33.192Z,99213.60
2023-08-29T11:13:56.778Z,99213.31
2023-08-29T11:17:13.793Z,99209.63
2023-08-29T11:20:18.491Z,99208.12
2023-08-29T11:23:23.507Z,99205.85
2023-08-29T11:26:31.272Z,99199.96
2023-08-29T11:29:38.455Z,99186.50
2023-08-29T11:32:42.854Z,99184.98
2023-08-29T11:35:47.455Z,99184.35
2023-08-29T11:38:52.818Z,99191.77
2023-08-29T11:42:07.969Z,99198.98
2023-08-29T11:45:44.841Z,99201.96
2023-08-29T11:48:45.755Z,99212.89
2023-08-29T11:51:50.061Z,99211.52
2023-08-29T11:54:55.206Z,99212.89
2023-08-29T11:57:59.698Z,99204.56
2023-08-29T12:01:06.132Z,99205.59
2023-08-29T12:04:10.414Z,99199.87
2023-08-29T12:07:15.670Z,99190.37
2023-08-29T12:10:20.819Z,99182.80
2023-08-29T12:13:25.101Z,99181.32
2023-08-29T12:16:29.765Z,99187.98
2023-08-29T12:19:36.137Z,99197.44
2023-08-29T12:22:49.476Z,99197.71
2023-08-29T12:25:57.158Z,99207.13
2023-08-29T12:29:01.300Z,99205.38
2023-08-29T12:32:06.100Z,99208.66
2023-08-29T12:35:11.576Z,99209.23
2023-08-29T12:38:16.079Z,99215.19
2023-08-29T12:41:20.751Z,99211.94
2023-08-29T12:44:25.045Z,99210.30
2023-08-29T12:47:29.269Z,99208.45
2023-08-29T12:50:33.445Z,99209.26
2023-08-29T12:53:37.561Z,99209.01
2023-08-29T12:56:41.821Z,99216.34
2023-08-29T12:59:46.554Z,99215.98
2023-08-29T13:02:51.117Z,99216.56
2023-08-29T13:05:55.772Z,99219.33
2023-08-29T13:09:00.353Z,99229.15
2023-08-29T13:12:07.912Z,99229.20
2023-08-29T13:15:13.812Z,99231.88
2023-08-29T13:18:18.140Z,99228.47
2023-08-29T13:21:22.284Z,99220.28
2023-08-29T13:24:26.440Z,99226.29
2023-08-29T13:27:30.703Z,99224.68
2023-08-29T13:30:35.022Z,99228.42
2023-08-29T13:33:39.451Z,99222.41
2023-08-29T13:36:43.735Z,99221.17
2023-08-29T13:39:55.902Z,99218.80
2023-08-29T13:43:00.085Z,99217.93
2023-08-29T13:46:05.268Z,99215.13
2023-08-29T13:49:10.088Z,99207.83
2023-08-29T13:52:14.279Z,99201.17
2023-08-29T13:55:18.374Z,99200.23
2023-08-29T13:58:22.694Z,99196.48
2023-08-29T14:01:27.150Z,99195.05
2023-08-29T14:04:31.542Z,99188.95
2023-08-29T14:07:35.692Z,99187.31
2023-08-29T14:10:40.083Z,99193.07
2023-08-29T14:13:44.362Z,99202.85
2023-08-29T14:16:48.649Z,99202.21
2023-08-29T14:19:53.884Z,99205.21
2023-08-29T14:23:02.030Z,99202.23
2023-08-29T14:26:10.620Z,99200.05
2023-08-29T14:29:14.681Z,99204.36
2023-08-29T14:32:19.735Z,99203.10
2023-08-29T14:35:23.793Z,99202.77
2023-08-29T14:38:27.795Z,99205.11
2023-08-29T14:41:31.778Z,99210.29
2023-08-29T14:44:35.746Z,99213.86
2023-08-29T14:47:39.689Z,99217.45
2023-08-29T14:50:46.461Z,99224.73
2023-08-29T14:53:51.375Z,99236.05
2023-08-29T14:56:55.356Z,99239.39
2023-08-29T14:59:59.440Z,99240.88
2023-08-29T15:03:08.797Z,99242.86
2023-08-29T15:06:16.699Z,99245.20
2023-08-29T15:09:20.632Z,99249.11
2023-08-29T15:12:24.626Z,99256.55
2023-08-29T15:15:29.447Z,99261.48
2023-08-29T15:18:33.953Z,99270.20
2023-08-29T15:21:37.993Z,99264.73
2023-08-29T15:24:42.081Z,99264.19
2023-08-29T15:27:45.998Z,99262.99
2023-08-29T15:30:53.408Z,99260.92
2023-08-29T15:33:57.385Z,99258.19
2023-08-29T15:37:05.615Z,99251.72
2023-08-29T15:40:13.584Z,99247.05
2023-08-29T15:43:18.684Z,99235.73
2023-08-29T15:46:22.861Z,99227.48
2023-08-29T15:49:27.693Z,99228.65
2023-08-29T15:52:31.762Z,99235.52
2023-08-29T15:55:36.305Z,99235.77
2023-08-29T15:58:41.377Z,99232.77
2023-08-29T16:01:45.362Z,99232.92
2023-08-29T16:04:49.376Z,99234.86
2023-08-29T16:07:53.696Z,99231.91
2023-08-29T16:10:57.563Z,99223.54
2023-08-29T16:14:02.426Z,99216.39
2023-08-29T16:17:06.386Z,99214.34
2023-08-29T16:20:11.393Z,99221.33
2023-08-29T16:23:15.327Z,99221.31
2023-08-29T16:26:22.892Z,99222.03
2023-08-29T16:29:26.878Z,99212.35
2023-08-29T16:32:30.971Z,99210.46
2023-08-29T16:35:35.663Z,99218.48
2023-08-29T16:38:39.871Z,99225.05
2023-08-29T16:41:43.884Z,99219.27
2023-08-29T16:44:48.164Z,99217.84
2023-08-29T16:47:54.826Z,99230.55
2023-08-29T16:50:58.911Z,99219.34
2023-08-29T16:54:03.146Z,99215.38
2023-08-29T16:57:07.150Z,99206.60
2023-08-29T17:00:12.080Z,99179.95
2023-08-29T17:03:16.190Z,99167.27
2023-08-29T17:06:20.515Z,99175.98
2023-08-29T17:09:24.581Z,99189.60
2023-08-29T17:12:28.565Z,99195.77
2023-08-29T17:15:32.666Z,99212.16
2023-08-29T17:18:36.648Z,99232.79
2023-08-29T17:21:41.273Z,99249.95
2023-08-29T17:24:46.955Z,99264.21
2023-08-29T17:27:50.939Z,99277.39
2023-08-29T17:30:55.329Z,99285.00
2023-08-29T17:33:59.389Z,99288.59
2023-08-29T17:37:03.543Z,99308.20
2023-08-29T17:40:09.151Z,99308.30
2023-08-29T17:43:13.161Z,99291.23
2023-08-29T17:46:18.186Z,99285.17
2023-08-29T17:49:22.314Z,99290.05
2023-08-29T17:52:26.263Z,99286.21
2023-08-29T17:55:30.297Z,99286.42
2023-08-29T17:58:34.310Z,99285.58
2023-08-29T18:01:38.543Z,99285.48
2023-08-29T18:04:46.154Z,99272.86
2023-08-29T18:07:50.297Z,99258.38
2023-08-29T18:10:55.015Z,99256.55
2023-08-29T18:13:59.007Z,99250.58
2023-08-29T18:17:03.117Z,99259.73
2023-08-29T18:20:07.387Z,99260.67
2023-08-29T18:23:11.429Z,99258.73
2023-08-29T18:26:15.433Z,99249.05
2023-08-29T18:29:19.391Z,99241.66
2023-08-29T18:32:23.416Z,99240.64
2023-08-29T18:35:27.376Z,99248.59
2023-08-29T18:38:32.773Z,99244.53
2023-08-29T18:41:36.786Z,99226.20
2023-08-29T18:44:40.790Z,99189.09
2023-08-29T18:47:44.965Z,99175.45
2023-08-29T18:50:49.034Z,99183.64
2023-08-29T18:53:52.964Z,99184.18
2023-08-29T18:56:56.916Z,99190.11
2023-08-29T19:00:00.983Z,99188.23
2023-08-29T19:03:05.167Z,99192.42
2023-08-29T19:06:11.257Z,99190.36
2023-08-29T19:09:17.142Z,99193.12
2023-08-29T19:12:21.086Z,99208.00
2023-08-29T19:15:25.682Z,99219.83
2023-08-29T19:18:29.890Z,99216.80
2023-08-29T19:21:33.864Z,99197.27
2023-08-29T19:24:37.896Z,99188.04
2023-08-29T19:27:42.106Z,99196.34
2023-08-29T19:30:46.258Z,99196.60
2023-08-29T19:33:50.282Z,99196.95
2023-08-29T19:36:54.269Z,99207.08
2023-08-29T19:39:58.203Z,99207.46
2023-08-29T19:43:05.384Z,99204.85
2023-08-29T19:46:09.498Z,99197.17
2023-08-29T19:49:14.248Z,99187.90
2023-08-29T19:52:18.565Z,99182.88
2023-08-29T19:55:23.100Z,99189.21
2023-08-29T19:58:27.238Z,99202.17
2023-08-29T20:01:32.794Z,99211.27
2023-08-29T20:04:36.843Z,99226.98
2023-08-29T20:07:41.130Z,99232.30
2023-08-29T20:10:45.290Z,99239.36
2023-08-29T20:13:49.249Z,99238.30
2023-08-29T20:16:53.940Z,99241.44
2023-08-29T20:19:58.076Z,99233.48
2023-08-29T20:23:02.440Z,99212.16
2023-08-29T20:26:06.771Z,99199.85
2023-08-29T20:29:10.719Z,99192.89
2023-08-29T20:32:14.736Z,99184.73
2023-08-29T20:35:19.241Z,99192.83
2023-08-29T20:38:23.318Z,99195.64
2023-08-29T20:41:27.559Z,99200.93
2023-08-29T20:44:32.097Z,99215.11
2023-08-29T20:47:37.032Z,99211.12
2023-08-29T20:50:44.531Z,99189.40
2023-08-29T20:53:48.582Z,99165.89
2023-08-29T20:56:52.766Z,99165.07
2023-08-29T20:59:56.728Z,99182.89
2023-08-29T21:03:00.780Z,99196.52
2023-08-29T21:06:05.051Z,99195.63
2023-08-29T21:09:11.732Z,99184.39
2023-08-29T21:12:17.243Z,99182.56
2023-08-29T21:15:21.245Z,99198.38
2023-08-29T21:18:25.351Z,99226.45
2023-08-29T21:21:29.366Z,99239.27
2023-08-29T21:24:34.124Z,99244.73
2023-08-29T21:27:38.111Z,99245.95
2023-08-29T21:30:42.136Z,99245.61
2023-08-29T21:33:46.251Z,99247.06
2023-08-29T21:36:51.307Z,99244.60
2023-08-29T21:39:55.514Z,99238.60
2023-08-29T21:42:59.419Z,99230.20
2023-08-29T21:46:07.453Z,99216.74
2023-08-29T21:49:11.554Z,99224.75
2023-08-29T21:52:15.588Z,99248.08
2023-08-29T21:55:20.416Z,99282.94
2023-08-29T21:58:25.149Z,99307.48
2023-08-29T22:01:29.142Z,99315.83
2023-08-29T22:04:33.169Z,99315.20
2023-08-29T22:07:37.741Z,99319.45
2023-08-29T22:10:41.919Z,99321.45
2023-08-29T22:13:46.917Z,99329.70
2023-08-29T22:16:50.972Z,99330.41
2023-08-29T22:19:54.946Z,99325.62
2023-08-29T22:22:59.004Z,99310.32
2023-08-29T22:26:07.554Z,99298.69
2023-08-29T22:29:11.532Z,99285.61
2023-08-29T22:32:15.720Z,99270.30
2023-08-29T22:35:20.725Z,99254.59
2023-08-29T22:38:25.044Z,99236.30
2023-08-29T22:41:34.549Z,99221.95
2023-08-29T22:44:44.067Z,99214.77
2023-08-29T22:47:51.479Z,99205.95
2023-08-29T22:50:55.539Z,99201.63
2023-08-29T22:53:59.668Z,99195.69
2023-08-29T22:57:03.899Z,99198.57
2023-08-29T23:00:14.152Z,99200.65
2023-08-29T23:03:18.503Z,99195.77
2023-08-29T23:06:23.146Z,99197.13
2023-08-29T23:09:27.560Z,99194.81
2023-08-29T23:12:31.563Z,99192.04
2023-08-29T23:15:35.607Z,99188.39
2023-08-29T23:18:40.628Z,99190.83
2023-08-29T23:21:45.236Z,99185.33
2023-08-29T23:24:49.578Z,99189.45
2023-08-29T23:27:53.539Z,99193.38
2023-08-29T23:30:57.619Z,99176.22
2023-08-29T23:34:01.658Z,99159.95
2023-08-29T23:37:05.798Z,99153.78
2023-08-29T23:40:10.838Z,99153.70
2023-08-29T23:43:15.844Z,99152.48
2023-08-29T23:46:20.690Z,99160.42
2023-08-29T23:49:26.488Z,99179.16
2023-08-29T23:52:30.510Z,99180.45
2023-08-29T23:55:35.217Z,99172.44
2023-08-29T23:58:39.215Z,99176.60
